sensor_id;sensor_type;location;lat;lon;timestamp;pressure;altitude;pressure_sealevel;temperature;humidity
82728;BME280;72459;50.110;8.750;2024-02-26T00:01:48;98918.03;;;6.88;75.04
82728;BME280;72459;50.110;8.750;2024-02-26T00:04:13;98913.03;;;6.95;78.12
82728;BME280;72459;50.110;8.750;2024-02-26T00:06:39;98907.00;;;6.98;78.38
82728;BME280;72459;50.110;8.750;2024-02-26T00:09:08;98908.84;;;7.02;78.30
82728;BME280;72459;50.110;8.750;2024-02-26T00:11:36;98916.72;;;7.04;77.85
82728;BME280;72459;50.110;8.750;2024-02-26T00:14:01;98910.53;;;7.00;77.64
82728;BME280;72459;50.110;8.750;2024-02-26T00:16:27;98912.41;;;7.04;78.04
82728;BME280;72459;50.110;8.750;2024-02-26T00:18:52;98902.78;;;7.03;77.97
82728;BME280;72459;50.110;8.750;2024-02-26T00:21:18;98901.19;;;7.08;77.92
82728;BME280;72459;50.110;8.750;2024-02-26T00:23:43;98905.53;;;7.08;78.23
82728;BME280;72459;50.110;8.750;2024-02-26T00:26:09;98891.66;;;7.10;78.24
82728;BME280;72459;50.110;8.750;2024-02-26T00:28:36;98898.66;;;7.11;78.12
82728;BME280;72459;50.110;8.750;2024-02-26T00:31:01;98890.00;;;7.14;78.39
82728;BME280;72459;50.110;8.750;2024-02-26T00:33:27;98890.91;;;7.14;78.59
82728;BME280;72459;50.110;8.750;2024-02-26T00:35:53;98878.81;;;7.18;78.16
82728;BME280;72459;50.110;8.750;2024-02-26T00:38:19;98883.25;;;7.20;78.22
82728;BME280;72459;50.110;8.750;2024-02-26T00:40:45;98877.09;;;7.18;77.12
82728;BME280;72459;50.110;8.750;2024-02-26T00:43:11;98864.84;;;7.16;77.59
82728;BME280;72459;50.110;8.750;2024-02-26T00:45:37;98871.78;;;7.15;76.78
82728;BME280;72459;50.110;8.750;2024-02-26T00:48:02;98868.16;;;7.10;76.37
82728;BME280;72459;50.110;8.750;2024-02-26T00:50:31;98862.72;;;7.03;77.21
82728;BME280;72459;50.110;8.750;2024-02-26T00:52:56;98872.38;;;7.05;77.38
82728;BME280;72459;50.110;8.750;2024-02-26T00:55:22;98871.47;;;7.05;76.81
82728;BME280;72459;50.110;8.750;2024-02-26T00:57:47;98878.41;;;7.03;76.30
82728;BME280;72459;50.110;8.750;2024-02-26T01:00:13;98862.59;;;6.98;77.25
82728;BME280;72459;50.110;8.750;2024-02-26T01:02:39;98851.28;;;6.97;76.50
82728;BME280;72459;50.110;8.750;2024-02-26T01:05:05;98842.47;;;6.94;75.90
82728;BME280;72459;50.110;8.750;2024-02-26T01:07:31;98831.88;;;6.88;76.25
82728;BME280;72459;50.110;8.750;2024-02-26T01:10:01;98846.53;;;6.83;76.60
82728;BME280;72459;50.110;8.750;2024-02-26T01:12:26;98843.94;;;6.83;77.09
82728;BME280;72459;50.110;8.750;2024-02-26T01:14:51;98846.56;;;6.84;76.95
82728;BME280;72459;50.110;8.750;2024-02-26T01:17:17;98862.28;;;6.86;77.08
82728;BME280;72459;50.110;8.750;2024-02-26T01:19:43;98864.94;;;6.87;77.52
82728;BME280;72459;50.110;8.750;2024-02-26T01:22:08;98855.38;;;6.88;77.27
82728;BME280;72459;50.110;8.750;2024-02-26T01:24:34;98844.13;;;6.90;76.68
82728;BME280;72459;50.110;8.750;2024-02-26T01:26:59;98845.81;;;6.88;76.03
82728;BME280;72459;50.110;8.750;2024-02-26T01:29:24;98865.69;;;6.83;76.00
82728;BME280;72459;50.110;8.750;2024-02-26T01:31:50;98858.72;;;6.82;76.44
82728;BME280;72459;50.110;8.750;2024-02-26T01:34:15;98856.91;;;6.80;76.50
82728;BME280;72459;50.110;8.750;2024-02-26T01:36:40;98861.19;;;6.78;75.99
82728;BME280;72459;50.110;8.750;2024-02-26T01:39:06;98867.25;;;6.77;76.54
82728;BME280;72459;50.110;8.750;2024-02-26T01:41:32;98863.81;;;6.78;76.78
82728;BME280;72459;50.110;8.750;2024-02-26T01:43:58;98855.97;;;6.78;76.72
82728;BME280;72459;50.110;8.750;2024-02-26T01:46:23;98859.44;;;6.77;75.44
82728;BME280;72459;50.110;8.750;2024-02-26T01:48:48;98844.59;;;6.76;75.81
82728;BME280;72459;50.110;8.750;2024-02-26T01:51:15;98848.03;;;6.73;76.98
82728;BME280;72459;50.110;8.750;2024-02-26T01:53:41;98850.59;;;6.72;76.94
82728;BME280;72459;50.110;8.750;2024-02-26T01:56:07;98859.00;;;6.61;73.80
82728;BME280;72459;50.110;8.750;2024-02-26T01:58:34;98852.22;;;6.68;75.33
82728;BME280;72459;50.110;8.750;2024-02-26T02:01:02;98861.97;;;6.74;76.48
82728;BME280;72459;50.110;8.750;2024-02-26T02:03:28;98863.72;;;6.75;76.68
82728;BME280;72459;50.110;8.750;2024-02-26T02:05:54;98849.91;;;6.79;76.42
82728;BME280;72459;50.110;8.750;2024-02-26T02:08:21;98843.00;;;6.81;75.77
82728;BME280;72459;50.110;8.750;2024-02-26T02:10:48;98842.00;;;6.76;75.67
82728;BME280;72459;50.110;8.750;2024-02-26T02:13:14;98824.53;;;6.73;76.27
82728;BME280;72459;50.110;8.750;2024-02-26T02:15:39;98811.56;;;6.76;76.28
82728;BME280;72459;50.110;8.750;2024-02-26T02:18:05;98829.72;;;6.72;76.26
82728;BME280;72459;50.110;8.750;2024-02-26T02:20:34;98867.72;;;6.62;72.61
82728;BME280;72459;50.110;8.750;2024-02-26T02:23:00;98839.13;;;6.66;76.70
82728;BME280;72459;50.110;8.750;2024-02-26T02:25:26;98878.34;;;6.68;76.30
82728;BME280;72459;50.110;8.750;2024-02-26T02:27:53;98862.84;;;6.74;76.61
82728;BME280;72459;50.110;8.750;2024-02-26T02:30:19;98860.34;;;6.79;76.28
82728;BME280;72459;50.110;8.750;2024-02-26T02:32:46;98873.41;;;6.79;76.81
82728;BME280;72459;50.110;8.750;2024-02-26T02:35:11;98861.97;;;6.74;76.94
82728;BME280;72459;50.110;8.750;2024-02-26T02:37:37;98863.72;;;6.75;76.47
82728;BME280;72459;50.110;8.750;2024-02-26T02:40:03;98900.31;;;6.76;74.19
82728;BME280;72459;50.110;8.750;2024-02-26T02:42:28;98873.41;;;6.79;76.22
82728;BME280;72459;50.110;8.750;2024-02-26T02:44:53;98886.41;;;6.77;75.96
82728;BME280;72459;50.110;8.750;2024-02-26T02:47:19;98876.69;;;6.72;75.81
82728;BME280;72459;50.110;8.750;2024-02-26T02:49:44;98884.66;;;6.76;74.91
82728;BME280;72459;50.110;8.750;2024-02-26T02:52:09;98876.06;;;6.80;76.98
82728;BME280;72459;50.110;8.750;2024-02-26T02:54:35;98883.94;;;6.82;75.60
82728;BME280;72459;50.110;8.750;2024-02-26T02:57:02;98879.69;;;6.85;77.11
82728;BME280;72459;50.110;8.750;2024-02-26T02:59:28;98878.88;;;6.88;77.02
82728;BME280;72459;50.110;8.750;2024-02-26T03:01:53;98878.00;;;6.87;77.40
82728;BME280;72459;50.110;8.750;2024-02-26T03:04:19;98884.97;;;6.88;77.49
82728;BME280;72459;50.110;8.750;2024-02-26T03:06:44;98893.75;;;6.90;77.26
82728;BME280;72459;50.110;8.750;2024-02-26T03:09:09;98897.28;;;6.92;77.64
82728;BME280;72459;50.110;8.750;2024-02-26T03:11:35;98896.16;;;6.83;76.07
82728;BME280;72459;50.110;8.750;2024-02-26T03:14:00;98885.03;;;6.90;76.71
82728;BME280;72459;50.110;8.750;2024-02-26T03:16:26;98889.50;;;6.94;77.06
82728;BME280;72459;50.110;8.750;2024-02-26T03:18:51;98891.34;;;6.98;76.97
82728;BME280;72459;50.110;8.750;2024-02-26T03:21:17;98886.13;;;6.98;77.54
82728;BME280;72459;50.110;8.750;2024-02-26T03:23:43;98886.28;;;7.04;77.28
82728;BME280;72459;50.110;8.750;2024-02-26T03:26:08;98887.06;;;7.02;77.05
82728;BME280;72459;50.110;8.750;2024-02-26T03:28:38;98890.63;;;7.04;77.00
82728;BME280;72459;50.110;8.750;2024-02-26T03:31:04;98896.59;;;6.99;76.36
82728;BME280;72459;50.110;8.750;2024-02-26T03:33:29;98887.25;;;7.08;77.47
82728;BME280;72459;50.110;8.750;2024-02-26T03:35:54;98902.16;;;7.12;77.38
82728;BME280;72459;50.110;8.750;2024-02-26T03:38:19;98895.22;;;7.14;76.67
82728;BME280;72459;50.110;8.750;2024-02-26T03:40:45;98891.75;;;7.13;77.42
82728;BME280;72459;50.110;8.750;2024-02-26T03:43:10;98891.69;;;7.12;77.47
82728;BME280;72459;50.110;8.750;2024-02-26T03:45:35;98892.69;;;7.15;77.37
82728;BME280;72459;50.110;8.750;2024-02-26T03:48:01;98891.84;;;7.16;77.57
82728;BME280;72459;50.110;8.750;2024-02-26T03:50:26;98890.84;;;7.13;77.84
82728;BME280;72459;50.110;8.750;2024-02-26T03:52:51;98886.63;;;7.16;77.99
82728;BME280;72459;50.110;8.750;2024-02-26T03:55:17;98890.09;;;7.15;77.81
82728;BME280;72459;50.110;8.750;2024-02-26T03:57:46;98890.91;;;7.14;77.26
82728;BME280;72459;50.110;8.750;2024-02-26T04:00:12;98898.03;;;7.20;77.39
82728;BME280;72459;50.110;8.750;2024-02-26T04:02:38;98905.03;;;7.21;76.92
82728;BME280;72459;50.110;8.750;2024-02-26T04:05:03;98905.00;;;7.19;77.21
82728;BME280;72459;50.110;8.750;2024-02-26T04:07:29;98897.16;;;7.19;76.88
82728;BME280;72459;50.110;8.750;2024-02-26T04:09:54;98907.59;;;7.19;77.27
82728;BME280;72459;50.110;8.750;2024-02-26T04:12:20;98905.00;;;7.19;77.39
82728;BME280;72459;50.110;8.750;2024-02-26T04:14:45;98899.69;;;7.16;76.93
82728;BME280;72459;50.110;8.750;2024-02-26T04:17:10;98907.53;;;7.16;77.01
82728;BME280;72459;50.110;8.750;2024-02-26T04:19:36;98891.75;;;7.13;77.65
82728;BME280;72459;50.110;8.750;2024-02-26T04:22:01;98896.03;;;7.11;77.36
82728;BME280;72459;50.110;8.750;2024-02-26T04:24:27;98897.84;;;7.14;77.56
82728;BME280;72459;50.110;8.750;2024-02-26T04:26:52;98884.75;;;7.12;77.53
82728;BME280;72459;50.110;8.750;2024-02-26T04:29:18;98903.88;;;7.11;77.60
82728;BME280;72459;50.110;8.750;2024-02-26T04:31:43;98901.31;;;7.13;77.21
82728;BME280;72459;50.110;8.750;2024-02-26T04:34:08;98898.66;;;7.11;77.29
82728;BME280;72459;50.110;8.750;2024-02-26T04:36:34;98900.34;;;7.09;77.64
82728;BME280;72459;50.110;8.750;2024-02-26T04:38:59;98902.19;;;7.13;77.54
82728;BME280;72459;50.110;8.750;2024-02-26T04:41:24;98902.94;;;7.09;74.86
82728;BME280;72459;50.110;8.750;2024-02-26T04:43:50;98908.28;;;7.14;76.60
82728;BME280;72459;50.110;8.750;2024-02-26T04:46:15;98902.22;;;7.15;77.11
82728;BME280;72459;50.110;8.750;2024-02-26T04:48:40;98903.03;;;7.12;76.96
82728;BME280;72459;50.110;8.750;2024-02-26T04:51:07;98902.22;;;7.15;77.05
82728;BME280;72459;50.110;8.750;2024-02-26T04:53:32;98903.06;;;7.14;77.24
82728;BME280;72459;50.110;8.750;2024-02-26T04:55:57;98904.72;;;7.10;77.37
82728;BME280;72459;50.110;8.750;2024-02-26T04:58:23;98900.38;;;7.11;77.59
82728;BME280;72459;50.110;8.750;2024-02-26T05:00:48;98909.91;;;7.09;77.13
82728;BME280;72459;50.110;8.750;2024-02-26T05:03:14;98912.41;;;7.04;77.35
82728;BME280;72459;50.110;8.750;2024-02-26T05:05:42;98920.94;;;6.98;77.86
82728;BME280;72459;50.110;8.750;2024-02-26T05:08:08;98933.13;;;6.98;76.86
82728;BME280;72459;50.110;8.750;2024-02-26T05:10:33;98932.19;;;6.96;76.70
82728;BME280;72459;50.110;8.750;2024-02-26T05:12:59;98929.53;;;6.94;77.33
82728;BME280;72459;50.110;8.750;2024-02-26T05:15:25;98928.69;;;6.95;77.43
82728;BME280;72459;50.110;8.750;2024-02-26T05:17:50;98936.50;;;6.94;77.25
82728;BME280;72459;50.110;8.750;2024-02-26T05:20:16;98928.50;;;6.88;76.05
82728;BME280;72459;50.110;8.750;2024-02-26T05:22:42;98933.78;;;6.91;77.22
82728;BME280;72459;50.110;8.750;2024-02-26T05:25:07;98932.88;;;6.89;77.30
82728;BME280;72459;50.110;8.750;2024-02-26T05:27:33;98928.41;;;6.85;77.29
82728;BME280;72459;50.110;8.750;2024-02-26T05:29:58;98924.09;;;6.87;77.24
82728;BME280;72459;50.110;8.750;2024-02-26T05:32:24;98932.78;;;6.86;77.83
82728;BME280;72459;50.110;8.750;2024-02-26T05:34:49;98927.47;;;6.83;77.88
82728;BME280;72459;50.110;8.750;2024-02-26T05:37:15;98926.59;;;6.82;77.75
82728;BME280;72459;50.110;8.750;2024-02-26T05:39:41;98927.47;;;6.83;78.08
82728;BME280;72459;50.110;8.750;2024-02-26T05:42:06;98934.47;;;6.84;77.79
82728;BME280;72459;50.110;8.750;2024-02-26T05:44:34;98940.44;;;6.80;77.56
82728;BME280;72459;50.110;8.750;2024-02-26T05:46:59;98941.25;;;6.77;77.80
82728;BME280;72459;50.110;8.750;2024-02-26T05:49:24;98940.28;;;6.74;77.85
82728;BME280;72459;50.110;8.750;2024-02-26T05:51:50;98941.97;;;6.72;77.68
82728;BME280;72459;50.110;8.750;2024-02-26T05:54:15;98946.22;;;6.68;77.50
82728;BME280;72459;50.110;8.750;2024-02-26T05:56:41;98945.25;;;6.64;77.94
82728;BME280;72459;50.110;8.750;2024-02-26T05:59:06;98939.03;;;6.61;77.91
82728;BME280;72459;50.110;8.750;2024-02-26T06:01:31;98942.53;;;6.61;77.92
82728;BME280;72459;50.110;8.750;2024-02-26T06:03:58;98944.19;;;6.58;78.25
82728;BME280;72459;50.110;8.750;2024-02-26T06:06:23;98950.19;;;6.55;77.87
82728;BME280;72459;50.110;8.750;2024-02-26T06:08:49;98951.81;;;6.52;78.04
82728;BME280;72459;50.110;8.750;2024-02-26T06:11:14;98952.50;;;6.46;77.98
82728;BME280;72459;50.110;8.750;2024-02-26T06:13:40;98947.09;;;6.40;78.25
82728;BME280;72459;50.110;8.750;2024-02-26T06:16:05;98945.22;;;6.36;78.02
82728;BME280;72459;50.110;8.750;2024-02-26T06:18:31;98960.72;;;6.30;78.21
82728;BME280;72459;50.110;8.750;2024-02-26T06:20:56;98959.69;;;6.25;77.69
82728;BME280;72459;50.110;8.750;2024-02-26T06:23:21;98957.81;;;6.21;78.31
82728;BME280;72459;50.110;8.750;2024-02-26T06:25:47;98969.09;;;6.20;78.19
82728;BME280;72459;50.110;8.750;2024-02-26T06:28:13;98973.31;;;6.16;78.77
82728;BME280;72459;50.110;8.750;2024-02-26T06:30:38;98974.22;;;6.17;78.52
82728;BME280;72459;50.110;8.750;2024-02-26T06:33:04;98980.22;;;6.14;78.84
82728;BME280;72459;50.110;8.750;2024-02-26T06:35:29;98980.25;;;6.16;78.65
82728;BME280;72459;50.110;8.750;2024-02-26T06:37:55;98992.41;;;6.15;78.63
82728;BME280;72459;50.110;8.750;2024-02-26T06:40:21;98992.31;;;6.12;78.24
82728;BME280;72459;50.110;8.750;2024-02-26T06:42:46;99002.72;;;6.11;78.47
82728;BME280;72459;50.110;8.750;2024-02-26T06:45:12;99006.16;;;6.10;78.67
82728;BME280;72459;50.110;8.750;2024-02-26T06:47:37;99012.13;;;6.06;78.56
82728;BME280;72459;50.110;8.750;2024-02-26T06:50:03;99016.53;;;6.08;79.01
82728;BME280;72459;50.110;8.750;2024-02-26T06:52:28;99020.81;;;6.06;78.68
82728;BME280;72459;50.110;8.750;2024-02-26T06:54:53;99020.81;;;6.06;78.64
82728;BME280;72459;50.110;8.750;2024-02-26T06:57:20;99032.00;;;6.02;79.03
82728;BME280;72459;50.110;8.750;2024-02-26T06:59:46;99031.19;;;6.04;79.02
82728;BME280;72459;50.110;8.750;2024-02-26T07:02:15;99030.41;;;6.07;79.16
82728;BME280;72459;50.110;8.750;2024-02-26T07:04:41;99029.53;;;6.07;79.25
82728;BME280;72459;50.110;8.750;2024-02-26T07:07:07;99038.34;;;6.10;79.58
82728;BME280;72459;50.110;8.750;2024-02-26T07:09:33;99041.84;;;6.11;79.66
82728;BME280;72459;50.110;8.750;2024-02-26T07:11:58;99036.63;;;6.11;80.92
82728;BME280;72459;50.110;8.750;2024-02-26T07:14:24;99043.59;;;6.12;79.97
82728;BME280;72459;50.110;8.750;2024-02-26T07:16:50;99042.81;;;6.14;80.07
82728;BME280;72459;50.110;8.750;2024-02-26T07:19:15;99046.25;;;6.13;80.60
82728;BME280;72459;50.110;8.750;2024-02-26T07:21:41;99046.94;;;6.08;80.54
82728;BME280;72459;50.110;8.750;2024-02-26T07:24:06;99049.31;;;6.00;81.05
82728;BME280;72459;50.110;8.750;2024-02-26T07:26:32;99050.28;;;6.03;81.05
82728;BME280;72459;50.110;8.750;2024-02-26T07:28:57;99059.94;;;6.06;81.29
82728;BME280;72459;50.110;8.750;2024-02-26T07:31:23;99057.28;;;6.04;81.67
82728;BME280;72459;50.110;8.750;2024-02-26T07:33:48;99064.28;;;6.06;81.71
82728;BME280;72459;50.110;8.750;2024-02-26T07:36:14;99064.22;;;6.04;82.44
82728;BME280;72459;50.110;8.750;2024-02-26T07:38:39;99060.00;;;6.08;82.14
82728;BME280;72459;50.110;8.750;2024-02-26T07:41:04;99060.94;;;6.10;82.16
82728;BME280;72459;50.110;8.750;2024-02-26T07:43:30;99057.44;;;6.09;82.83
82728;BME280;72459;50.110;8.750;2024-02-26T07:45:56;99070.56;;;6.12;82.71
82728;BME280;72459;50.110;8.750;2024-02-26T07:48:22;99063.44;;;6.07;83.81
82728;BME280;72459;50.110;8.750;2024-02-26T07:50:47;99067.59;;;6.01;83.91
82728;BME280;72459;50.110;8.750;2024-02-26T07:53:13;99069.53;;;6.07;84.09
82728;BME280;72459;50.110;8.750;2024-02-26T07:55:38;99072.94;;;6.04;85.50
82728;BME280;72459;50.110;8.750;2024-02-26T07:58:04;99072.25;;;6.10;84.00
82728;BME280;72459;50.110;8.750;2024-02-26T08:00:29;99075.59;;;6.06;85.15
82728;BME280;72459;50.110;8.750;2024-02-26T08:02:55;99079.13;;;6.08;84.65
82728;BME280;72459;50.110;8.750;2024-02-26T08:05:20;99077.47;;;6.10;84.76
82728;BME280;72459;50.110;8.750;2024-02-26T08:07:45;99084.59;;;6.16;84.84
82728;BME280;72459;50.110;8.750;2024-02-26T08:10:11;99079.47;;;6.19;85.30
82728;BME280;72459;50.110;8.750;2024-02-26T08:12:36;99083.81;;;6.18;84.97
82728;BME280;72459;50.110;8.750;2024-02-26T08:15:02;99084.75;;;6.20;85.21
82728;BME280;72459;50.110;8.750;2024-02-26T08:17:28;99092.81;;;6.28;85.84
82728;BME280;72459;50.110;8.750;2024-02-26T08:19:53;99094.59;;;6.29;85.37
82728;BME280;72459;50.110;8.750;2024-02-26T08:22:18;99095.44;;;6.28;85.67
82728;BME280;72459;50.110;8.750;2024-02-26T08:24:44;99094.66;;;6.30;87.13
82728;BME280;72459;50.110;8.750;2024-02-26T08:27:10;99094.06;;;6.39;86.52
82728;BME280;72459;50.110;8.750;2024-02-26T08:29:35;99092.53;;;6.46;86.17
82728;BME280;72459;50.110;8.750;2024-02-26T08:32:01;99094.25;;;6.45;87.01
82728;BME280;72459;50.110;8.750;2024-02-26T08:34:26;99095.38;;;6.52;87.15
82728;BME280;72459;50.110;8.750;2024-02-26T08:36:52;99089.47;;;6.57;87.04
82728;BME280;72459;50.110;8.750;2024-02-26T08:39:18;99083.41;;;6.58;88.73
82728;BME280;72459;50.110;8.750;2024-02-26T08:41:44;99087.31;;;6.73;87.91
82728;BME280;72459;50.110;8.750;2024-02-26T08:44:10;99103.16;;;6.79;87.76
82728;BME280;72459;50.110;8.750;2024-02-26T08:46:36;99098.00;;;6.80;88.36
82728;BME280;72459;50.110;8.750;2024-02-26T08:49:01;99102.75;;;6.93;88.05
82728;BME280;72459;50.110;8.750;2024-02-26T08:51:26;99111.53;;;6.95;88.29
82728;BME280;72459;50.110;8.750;2024-02-26T08:53:52;99104.53;;;6.94;88.58
82728;BME280;72459;50.110;8.750;2024-02-26T08:56:19;99108.69;;;6.88;88.08
82728;BME280;72459;50.110;8.750;2024-02-26T08:58:46;99099.03;;;6.85;88.26
82728;BME280;72459;50.110;8.750;2024-02-26T09:01:17;99104.34;;;6.88;88.53
82728;BME280;72459;50.110;8.750;2024-02-26T09:03:42;99099.91;;;6.86;88.75
82728;BME280;72459;50.110;8.750;2024-02-26T09:06:08;99115.72;;;6.90;88.96
82728;BME280;72459;50.110;8.750;2024-02-26T09:08:33;99109.78;;;6.96;89.34
82728;BME280;72459;50.110;8.750;2024-02-26T09:11:01;99110.59;;;6.93;89.23
82728;BME280;72459;50.110;8.750;2024-02-26T09:13:26;99115.94;;;6.98;89.91
82728;BME280;72459;50.110;8.750;2024-02-26T09:15:51;99113.00;;;6.87;89.90
82728;BME280;72459;50.110;8.750;2024-02-26T09:18:17;99113.34;;;6.98;90.02
82728;BME280;72459;50.110;8.750;2024-02-26T09:20:42;99115.94;;;6.98;90.22
82728;BME280;72459;50.110;8.750;2024-02-26T09:23:08;99114.97;;;6.94;90.37
82728;BME280;72459;50.110;8.750;2024-02-26T09:25:34;99122.81;;;6.94;89.93
82728;BME280;72459;50.110;8.750;2024-02-26T09:28:00;99125.50;;;6.97;90.35
82728;BME280;72459;50.110;8.750;2024-02-26T09:30:26;99121.00;;;6.92;90.31
82728;BME280;72459;50.110;8.750;2024-02-26T09:32:51;99126.22;;;6.92;91.05
82728;BME280;72459;50.110;8.750;2024-02-26T09:35:16;99126.50;;;7.01;90.92
82728;BME280;72459;50.110;8.750;2024-02-26T09:37:42;99132.69;;;7.05;91.10
82728;BME280;72459;50.110;8.750;2024-02-26T09:40:10;99130.22;;;7.09;91.57
82728;BME280;72459;50.110;8.750;2024-02-26T09:42:43;99134.69;;;7.13;90.92
82728;BME280;72459;50.110;8.750;2024-02-26T09:45:11;99127.88;;;7.17;91.39
82728;BME280;72459;50.110;8.750;2024-02-26T09:47:39;99128.75;;;7.17;91.64
82728;BME280;72459;50.110;8.750;2024-02-26T09:50:06;99126.03;;;7.14;91.54
82728;BME280;72459;50.110;8.750;2024-02-26T09:52:37;99135.75;;;7.18;92.18
82728;BME280;72459;50.110;8.750;2024-02-26T09:55:04;99130.53;;;7.18;91.72
82728;BME280;72459;50.110;8.750;2024-02-26T09:57:29;99129.97;;;7.28;91.73
82728;BME280;72459;50.110;8.750;2024-02-26T09:59:59;99126.00;;;7.43;92.16
82728;BME280;72459;50.110;8.750;2024-02-26T10:02:29;99128.38;;;7.65;92.62
82728;BME280;72459;50.110;8.750;2024-02-26T10:04:56;99127.25;;;7.85;92.13
82728;BME280;72459;50.110;8.750;2024-02-26T10:07:27;99134.44;;;7.94;92.58
82728;BME280;72459;50.110;8.750;2024-02-26T10:09:55;99134.72;;;8.05;93.13
82728;BME280;72459;50.110;8.750;2024-02-26T10:12:21;99139.16;;;8.07;92.08
82728;BME280;72459;50.110;8.750;2024-02-26T10:14:47;99139.97;;;8.05;92.53
82728;BME280;72459;50.110;8.750;2024-02-26T10:17:12;99139.72;;;7.95;90.94
82728;BME280;72459;50.110;8.750;2024-02-26T10:19:38;99134.94;;;8.12;92.17
82728;BME280;72459;50.110;8.750;2024-02-26T10:22:03;99133.63;;;8.30;92.51
82728;BME280;72459;50.110;8.750;2024-02-26T10:24:30;99139.28;;;8.45;92.89
82728;BME280;72459;50.110;8.750;2024-02-26T10:26:56;99141.16;;;8.49;92.99
82728;BME280;72459;50.110;8.750;2024-02-26T10:29:24;99139.34;;;8.46;93.35
82728;BME280;72459;50.110;8.750;2024-02-26T10:31:51;99145.50;;;8.48;92.53
82728;BME280;72459;50.110;8.750;2024-02-26T10:34:17;99144.03;;;8.60;92.87
82728;BME280;72459;50.110;8.750;2024-02-26T10:36:43;99151.09;;;8.62;93.83
82728;BME280;72459;50.110;8.750;2024-02-26T10:39:13;99157.09;;;8.58;92.91
82728;BME280;72459;50.110;8.750;2024-02-26T10:41:40;99155.09;;;8.48;91.89
82728;BME280;72459;50.110;8.750;2024-02-26T10:44:09;99152.66;;;8.55;92.71
82728;BME280;72459;50.110;8.750;2024-02-26T10:46:37;99146.97;;;8.72;92.67
82728;BME280;72459;50.110;8.750;2024-02-26T10:49:02;99159.59;;;8.89;92.83
82728;BME280;72459;50.110;8.750;2024-02-26T10:51:30;99155.13;;;9.21;92.12
82728;BME280;72459;50.110;8.750;2024-02-26T10:53:59;99163.03;;;9.65;91.78
82728;BME280;72459;50.110;8.750;2024-02-26T10:56:28;99170.75;;;10.00;92.93
82728;BME280;72459;50.110;8.750;2024-02-26T10:58:58;99167.91;;;10.33;91.15
82728;BME280;72459;50.110;8.750;2024-02-26T11:01:24;99172.03;;;10.67;91.99
82728;BME280;72459;50.110;8.750;2024-02-26T11:03:51;99168.69;;;10.77;89.02
82728;BME280;72459;50.110;8.750;2024-02-26T11:06:17;99169.81;;;10.91;93.00
82728;BME280;72459;50.110;8.750;2024-02-26T11:08:44;99171.44;;;10.85;91.98
82728;BME280;72459;50.110;8.750;2024-02-26T11:11:13;99178.34;;;10.78;92.66
82728;BME280;72459;50.110;8.750;2024-02-26T11:13:40;99180.69;;;10.61;91.24
82728;BME280;72459;50.110;8.750;2024-02-26T11:16:09;99177.25;;;10.64;92.60
82728;BME280;72459;50.110;8.750;2024-02-26T11:18:36;99173.34;;;10.40;91.86
82728;BME280;72459;50.110;8.750;2024-02-26T11:21:03;99179.75;;;10.56;92.77
82728;BME280;72459;50.110;8.750;2024-02-26T11:23:29;99188.78;;;10.73;93.31
82728;BME280;72459;50.110;8.750;2024-02-26T11:25:56;99180.19;;;10.84;92.26
82728;BME280;72459;50.110;8.750;2024-02-26T11:28:25;99190.84;;;10.91;92.32
82728;BME280;72459;50.110;8.750;2024-02-26T11:30:53;99189.00;;;10.87;90.17
82728;BME280;72459;50.110;8.750;2024-02-26T11:33:19;99183.97;;;11.01;91.00
82728;BME280;72459;50.110;8.750;2024-02-26T11:35:45;99182.16;;;10.97;91.27
82728;BME280;72459;50.110;8.750;2024-02-26T11:38:20;99192.56;;;10.89;87.43
82728;BME280;72459;50.110;8.750;2024-02-26T11:40:47;99190.56;;;11.29;92.73
82728;BME280;72459;50.110;8.750;2024-02-26T11:43:12;99180.50;;;11.62;92.41
82728;BME280;72459;50.110;8.750;2024-02-26T11:48:20;99182.94;;;12.15;90.92
82728;BME280;72459;50.110;8.750;2024-02-26T11:50:47;99190.09;;;12.28;90.35
82728;BME280;72459;50.110;8.750;2024-02-26T11:55:48;99195.72;;;12.59;91.17
82728;BME280;72459;50.110;8.750;2024-02-26T11:58:14;99192.13;;;12.51;90.80
82728;BME280;72459;50.110;8.750;2024-02-26T12:00:40;99189.41;;;12.42;90.52
82728;BME280;72459;50.110;8.750;2024-02-26T12:03:06;99188.47;;;12.36;91.09
82728;BME280;72459;50.110;8.750;2024-02-26T12:05:35;99184.75;;;12.21;91.14
82728;BME280;72459;50.110;8.750;2024-02-26T12:08:04;99178.56;;;12.16;89.87
82728;BME280;72459;50.110;8.750;2024-02-26T12:10:35;99172.53;;;12.27;91.81
82728;BME280;72459;50.110;8.750;2024-02-26T12:13:13;99168.22;;;12.34;90.11
82728;BME280;72459;50.110;8.750;2024-02-26T12:15:41;99169.22;;;12.42;90.45
82728;BME280;72459;50.110;8.750;2024-02-26T12:18:08;99172.44;;;12.17;88.65
82728;BME280;72459;50.110;8.750;2024-02-26T12:20:36;99178.09;;;12.53;90.41
82728;BME280;72459;50.110;8.750;2024-02-26T12:23:04;99185.19;;;12.59;91.20
82728;BME280;72459;50.110;8.750;2024-02-26T12:25:31;99184.28;;;12.58;89.64
82728;BME280;72459;50.110;8.750;2024-02-26T12:27:57;99179.19;;;12.77;89.54
82728;BME280;72459;50.110;8.750;2024-02-26T12:30:23;99180.13;;;12.86;90.17
82728;BME280;72459;50.110;8.750;2024-02-26T12:32:51;99186.97;;;12.64;84.87
82728;BME280;72459;50.110;8.750;2024-02-26T12:35:17;99188.88;;;12.79;82.75
82728;BME280;72459;50.110;8.750;2024-02-26T12:37:46;99191.81;;;13.14;90.07
82728;BME280;72459;50.110;8.750;2024-02-26T12:40:12;99190.78;;;12.98;89.23
82728;BME280;72459;50.110;8.750;2024-02-26T12:42:38;99194.13;;;12.79;89.92
82728;BME280;72459;50.110;8.750;2024-02-26T12:45:06;99196.41;;;12.41;87.43
82728;BME280;72459;50.110;8.750;2024-02-26T12:47:44;99202.53;;;12.38;89.83
82728;BME280;72459;50.110;8.750;2024-02-26T12:50:15;99213.75;;;12.22;90.53
82728;BME280;72459;50.110;8.750;2024-02-26T12:52:47;99214.41;;;12.03;88.84
82728;BME280;72459;50.110;8.750;2024-02-26T12:55:18;99211.81;;;12.06;90.16
82728;BME280;72459;50.110;8.750;2024-02-26T12:57:45;99214.22;;;11.88;85.80
82728;BME280;72459;50.110;8.750;2024-02-26T13:00:13;99216.84;;;11.88;89.51
82728;BME280;72459;50.110;8.750;2024-02-26T13:02:40;99202.94;;;11.98;90.64
82728;BME280;72459;50.110;8.750;2024-02-26T13:05:08;99205.59;;;11.99;86.28
82728;BME280;72459;50.110;8.750;2024-02-26T13:07:34;99213.66;;;12.13;87.80
82728;BME280;72459;50.110;8.750;2024-02-26T13:10:05;99216.53;;;12.34;90.36